sensor_id;sensor_type;location;lat;lon;timestamp;pressure;altitude;pressure_sealevel;temperature;humidity
34297;BME280;20564;42.902;25.336;2023-03-20T00:00:00;97522.38;;;2.34;94.56
34297;BME280;20564;42.902;25.336;2023-03-20T00:02:31;97529.28;;;2.35;94.66
34297;BME280;20564;42.902;25.336;2023-03-20T00:05:19;97518.91;;;2.35;94.46
34297;BME280;20564;42.902;25.336;2023-03-20T00:07:51;97520.56;;;2.36;93.88
34297;BME280;20564;42.902;25.336;2023-03-20T00:10:26;97518.63;;;2.39;94.16
34297;BME280;20564;42.902;25.336;2023-03-20T00:13:06;97520.41;;;2.39;93.93
34297;BME280;20564;42.902;25.336;2023-03-20T00:15:37;97505.13;;;2.33;94.55
34297;BME280;20564;42.902;25.336;2023-03-20T00:18:27;97515.69;;;2.30;94.03
34297;BME280;20564;42.902;25.336;2023-03-20T00:21:28;97510.75;;;2.25;94.02
34297;BME280;20564;42.902;25.336;2023-03-20T00:24:15;97512.66;;;2.22;94.78
34297;BME280;20564;42.902;25.336;2023-03-20T00:26:47;97505.94;;;2.17;94.46
34297;BME280;20564;42.902;25.336;2023-03-20T00:29:27;97500.91;;;2.14;94.44
34297;BME280;20564;42.902;25.336;2023-03-20T00:32:02;97497.56;;;2.12;94.79
34297;BME280;20564;42.902;25.336;2023-03-20T00:34:37;97487.94;;;2.14;95.09
34297;BME280;20564;42.902;25.336;2023-03-20T00:37:13;97487.19;;;2.12;95.18
34297;BME280;20564;42.902;25.336;2023-03-20T00:39:46;97499.25;;;2.13;94.98
34297;BME280;20564;42.902;25.336;2023-03-20T00:42:19;97490.53;;;2.14;94.43
34297;BME280;20564;42.902;25.336;2023-03-20T00:44:58;97489.53;;;2.17;94.11
34297;BME280;20564;42.902;25.336;2023-03-20T00:47:29;97489.84;;;2.11;94.23
34297;BME280;20564;42.902;25.336;2023-03-20T00:50:18;97481.31;;;2.09;94.50
34297;BME280;20564;42.902;25.336;2023-03-20T00:52:48;97484.75;;;2.09;93.83
34297;BME280;20564;42.902;25.336;2023-03-20T00:55:30;97475.66;;;2.01;94.09
34297;BME280;20564;42.902;25.336;2023-03-20T01:00:46;97476.00;;;1.95;94.33
34297;BME280;20564;42.902;25.336;2023-03-20T01:03:30;97469.97;;;1.94;94.44
34297;BME280;20564;42.902;25.336;2023-03-20T01:06:36;97470.72;;;1.96;95.06
34297;BME280;20564;42.902;25.336;2023-03-20T01:09:21;97464.69;;;1.96;93.43
34297;BME280;20564;42.902;25.336;2023-03-20T01:11:52;97470.03;;;1.92;94.47
34297;BME280;20564;42.902;25.336;2023-03-20T01:14:28;97458.31;;;1.85;94.56
34297;BME280;20564;42.902;25.336;2023-03-20T01:17:00;97458.41;;;1.84;94.87
34297;BME280;20564;42.902;25.336;2023-03-20T01:19:32;97454.44;;;1.77;95.52
34297;BME280;20564;42.902;25.336;2023-03-20T01:22:25;97465.25;;;1.85;95.56
34297;BME280;20564;42.902;25.336;2023-03-20T01:25:13;97454.09;;;1.83;94.87
34297;BME280;20564;42.902;25.336;2023-03-20T01:27:50;97451.69;;;1.80;94.81
34297;BME280;20564;42.902;25.336;2023-03-20T01:30:42;97450.59;;;1.84;94.95
34297;BME280;20564;42.902;25.336;2023-03-20T01:33:26;97443.91;;;1.80;95.03
34297;BME280;20564;42.902;25.336;2023-03-20T01:36:08;97446.56;;;1.78;94.97
34297;BME280;20564;42.902;25.336;2023-03-20T01:39:00;97436.59;;;1.71;94.92
34297;BME280;20564;42.902;25.336;2023-03-20T01:41:31;97451.56;;;1.65;95.01
34297;BME280;20564;42.902;25.336;2023-03-20T01:44:14;97446.53;;;1.62;95.61
34297;BME280;20564;42.902;25.336;2023-03-20T01:46:44;97457.06;;;1.59;95.41
34297;BME280;20564;42.902;25.336;2023-03-20T01:53:03;97451.47;;;1.50;96.56
34297;BME280;20564;42.902;25.336;2023-03-20T01:55:52;97447.47;;;1.44;96.59
34297;BME280;20564;42.902;25.336;2023-03-20T01:58:34;97445.56;;;1.48;96.13
34297;BME280;20564;42.902;25.336;2023-03-20T02:01:13;97449.28;;;1.42;96.87
34297;BME280;20564;42.902;25.336;2023-03-20T02:04:24;97453.34;;;1.48;97.04
34297;BME280;20564;42.902;25.336;2023-03-20T02:06:53;97450.06;;;1.44;96.33
34297;BME280;20564;42.902;25.336;2023-03-20T02:10:15;97454.63;;;1.39;97.02
34297;BME280;20564;42.902;25.336;2023-03-20T02:12:50;97451.81;;;1.43;96.51
34297;BME280;20564;42.902;25.336;2023-03-20T02:15:34;97446.78;;;1.40;96.29
34297;BME280;20564;42.902;25.336;2023-03-20T02:18:03;97441.06;;;1.34;96.59
34297;BME280;20564;42.902;25.336;2023-03-20T02:21:01;97441.84;;;1.36;96.71
34297;BME280;20564;42.902;25.336;2023-03-20T02:27:22;97439.69;;;1.27;97.02
34297;BME280;20564;42.902;25.336;2023-03-20T02:33:41;97436.66;;;1.18;97.59
34297;BME280;20564;42.902;25.336;2023-03-20T02:39:46;97443.13;;;1.10;97.64
34297;BME280;20564;42.902;25.336;2023-03-20T02:45:28;97441.81;;;1.18;97.66
34297;BME280;20564;42.902;25.336;2023-03-20T02:51:03;97424.50;;;1.19;97.00
34297;BME280;20564;42.902;25.336;2023-03-20T02:54:22;97432.06;;;1.24;96.47
34297;BME280;20564;42.902;25.336;2023-03-20T02:57:14;97409.50;;;1.08;96.86
34297;BME280;20564;42.902;25.336;2023-03-20T03:00:28;97425.97;;;1.07;97.03
34297;BME280;20564;42.902;25.336;2023-03-20T03:06:38;97424.06;;;1.11;97.64
34297;BME280;20564;42.902;25.336;2023-03-20T03:09:34;97428.72;;;1.04;97.50
34297;BME280;20564;42.902;25.336;2023-03-20T03:12:21;97427.63;;;1.08;97.41
34297;BME280;20564;42.902;25.336;2023-03-20T03:15:01;97425.34;;;1.02;97.65
34297;BME280;20564;42.902;25.336;2023-03-20T03:17:38;97416.28;;;0.93;97.93
34297;BME280;20564;42.902;25.336;2023-03-20T03:23:33;97423.28;;;0.91;97.22
34297;BME280;20564;42.902;25.336;2023-03-20T03:26:23;97427.78;;;0.88;97.62
34297;BME280;20564;42.902;25.336;2023-03-20T03:29:14;97427.84;;;0.86;97.71
34297;BME280;20564;42.902;25.336;2023-03-20T03:32:43;97420.47;;;0.79;97.50
34297;BME280;20564;42.902;25.336;2023-03-20T03:41:03;97417.56;;;0.85;97.80
34297;BME280;20564;42.902;25.336;2023-03-20T03:44:02;97420.47;;;0.79;97.81
34297;BME280;20564;42.902;25.336;2023-03-20T03:46:50;97422.22;;;0.78;97.83
34297;BME280;20564;42.902;25.336;2023-03-20T03:52:29;97418.16;;;0.72;98.08
34297;BME280;20564;42.902;25.336;2023-03-20T03:55:04;97417.47;;;0.69;98.22
34297;BME280;20564;42.902;25.336;2023-03-20T03:58:02;97418.47;;;0.66;98.20
34297;BME280;20564;42.902;25.336;2023-03-20T04:00:31;97421.06;;;0.66;98.26
34297;BME280;20564;42.902;25.336;2023-03-20T04:02:59;97410.97;;;0.60;98.04
34297;BME280;20564;42.902;25.336;2023-03-20T04:05:42;97421.19;;;0.63;97.69
34297;BME280;20564;42.902;25.336;2023-03-20T04:08:15;97405.94;;;0.57;98.25
34297;BME280;20564;42.902;25.336;2023-03-20T04:10:48;97415.31;;;0.60;98.32
34297;BME280;20564;42.902;25.336;2023-03-20T04:13:17;97414.19;;;0.65;98.13
34297;BME280;20564;42.902;25.336;2023-03-20T04:15:45;97415.25;;;0.61;97.81
34297;BME280;20564;42.902;25.336;2023-03-20T04:18:20;97413.56;;;0.60;98.50
34297;BME280;20564;42.902;25.336;2023-03-20T04:20:47;97415.38;;;0.58;97.88
34297;BME280;20564;42.902;25.336;2023-03-20T04:23:14;97423.94;;;0.60;98.07
34297;BME280;20564;42.902;25.336;2023-03-20T04:25:41;97420.28;;;0.64;97.96
34297;BME280;20564;42.902;25.336;2023-03-20T04:28:10;97419.59;;;0.61;97.73
34297;BME280;20564;42.902;25.336;2023-03-20T04:30:38;97418.88;;;0.57;98.25
34297;BME280;20564;42.902;25.336;2023-03-20T04:33:05;97419.44;;;0.64;97.64
34297;BME280;20564;42.902;25.336;2023-03-20T04:35:33;97423.78;;;0.63;97.81
34297;BME280;20564;42.902;25.336;2023-03-20T04:38:01;97432.16;;;0.68;97.58
34297;BME280;20564;42.902;25.336;2023-03-20T04:40:28;97424.41;;;0.68;97.36
34297;BME280;20564;42.902;25.336;2023-03-20T04:42:57;97431.19;;;0.71;98.20
34297;BME280;20564;42.902;25.336;2023-03-20T04:45:25;97428.38;;;0.76;98.49
34297;BME280;20564;42.902;25.336;2023-03-20T04:47:56;97428.09;;;0.82;98.13
34297;BME280;20564;42.902;25.336;2023-03-20T04:50:27;97438.31;;;0.85;97.64
34297;BME280;20564;42.902;25.336;2023-03-20T04:52:57;97446.69;;;0.90;98.29
34297;BME280;20564;42.902;25.336;2023-03-20T04:55:25;97444.00;;;0.91;98.32
34297;BME280;20564;42.902;25.336;2023-03-20T04:57:53;97448.91;;;0.98;97.76
34297;BME280;20564;42.902;25.336;2023-03-20T05:00:21;97440.88;;;1.02;98.05
34297;BME280;20564;42.902;25.336;2023-03-20T05:02:49;97447.25;;;1.14;97.38
34297;BME280;20564;42.902;25.336;2023-03-20T05:05:19;97436.78;;;1.15;97.74
34297;BME280;20564;42.902;25.336;2023-03-20T05:07:46;97444.41;;;1.18;97.28
34297;BME280;20564;42.902;25.336;2023-03-20T05:10:14;97455.78;;;1.33;96.97
34297;BME280;20564;42.902;25.336;2023-03-20T05:12:42;97443.50;;;1.37;96.98
34297;BME280;20564;42.902;25.336;2023-03-20T05:15:09;97457.69;;;1.47;96.30
34297;BME280;20564;42.902;25.336;2023-03-20T05:17:38;97447.66;;;1.57;95.89
34297;BME280;20564;42.902;25.336;2023-03-20T05:20:06;97454.06;;;1.67;96.23
34297;BME280;20564;42.902;25.336;2023-03-20T05:22:33;97450.25;;;1.74;95.88
34297;BME280;20564;42.902;25.336;2023-03-20T05:25:10;97447.75;;;1.88;96.05
34297;BME280;20564;42.902;25.336;2023-03-20T05:28:08;97453.16;;;2.01;95.79
34297;BME280;20564;42.902;25.336;2023-03-20T05:30:36;97450.34;;;2.22;95.86
34297;BME280;20564;42.902;25.336;2023-03-20T05:33:14;97449.19;;;2.43;95.38
34297;BME280;20564;42.902;25.336;2023-03-20T05:35:42;97452.53;;;2.61;95.98
34297;BME280;20564;42.902;25.336;2023-03-20T05:38:09;97447.16;;;2.80;95.61
34297;BME280;20564;42.902;25.336;2023-03-20T05:40:40;97449.88;;;3.08;94.34
34297;BME280;20564;42.902;25.336;2023-03-20T05:43:22;97444.34;;;3.29;94.75
34297;BME280;20564;42.902;25.336;2023-03-20T05:45:56;97453.66;;;3.47;95.53
34297;BME280;20564;42.902;25.336;2023-03-20T05:48:23;97445.00;;;3.62;96.60
34297;BME280;20564;42.902;25.336;2023-03-20T05:50:51;97440.34;;;3.82;95.33
34297;BME280;20564;42.902;25.336;2023-03-20T05:53:18;97443.50;;;4.01;95.35
34297;BME280;20564;42.902;25.336;2023-03-20T05:55:46;97443.22;;;4.20;95.48
34297;BME280;20564;42.902;25.336;2023-03-20T05:58:14;97439.47;;;4.39;95.82
34297;BME280;20564;42.902;25.336;2023-03-20T06:00:50;97439.16;;;4.57;96.68
34297;BME280;20564;42.902;25.336;2023-03-20T06:03:17;97443.38;;;4.87;97.11
34297;BME280;20564;42.902;25.336;2023-03-20T06:05:44;97437.09;;;5.17;95.92
34297;BME280;20564;42.902;25.336;2023-03-20T06:08:13;97440.81;;;5.52;95.10
34297;BME280;20564;42.902;25.336;2023-03-20T06:10:44;97433.09;;;5.76;92.46
34297;BME280;20564;42.902;25.336;2023-03-20T06:13:22;97436.13;;;6.09;92.63
34297;BME280;20564;42.902;25.336;2023-03-20T06:15:50;97439.44;;;6.36;90.43
34297;BME280;20564;42.902;25.336;2023-03-20T06:18:28;97434.22;;;6.73;89.35
34297;BME280;20564;42.902;25.336;2023-03-20T06:20:59;97427.38;;;7.07;88.64
34297;BME280;20564;42.902;25.336;2023-03-20T06:23:28;97424.25;;;7.37;87.78
34297;BME280;20564;42.902;25.336;2023-03-20T06:25:55;97423.03;;;7.65;85.92
34297;BME280;20564;42.902;25.336;2023-03-20T06:28:23;97421.25;;;8.00;84.62
34297;BME280;20564;42.902;25.336;2023-03-20T06:30:51;97410.53;;;8.25;84.02
34297;BME280;20564;42.902;25.336;2023-03-20T06:33:23;97413.41;;;8.56;81.15
34297;BME280;20564;42.902;25.336;2023-03-20T06:35:50;97414.06;;;8.80;79.56
34297;BME280;20564;42.902;25.336;2023-03-20T06:38:22;97410.75;;;8.99;76.41
34297;BME280;20564;42.902;25.336;2023-03-20T06:40:51;97404.00;;;9.17;74.14
34297;BME280;20564;42.902;25.336;2023-03-20T06:43:22;97410.59;;;9.44;73.93
34297;BME280;20564;42.902;25.336;2023-03-20T06:45:52;97405.94;;;9.78;75.89
34297;BME280;20564;42.902;25.336;2023-03-20T06:48:20;97413.78;;;10.20;69.60
34297;BME280;20564;42.902;25.336;2023-03-20T06:50:51;97408.78;;;10.48;67.85
34297;BME280;20564;42.902;25.336;2023-03-20T06:53:19;97402.88;;;10.65;66.68
34297;BME280;20564;42.902;25.336;2023-03-20T06:55:48;97404.28;;;10.89;65.58
34297;BME280;20564;42.902;25.336;2023-03-20T06:58:16;97404.84;;;11.21;65.11
34297;BME280;20564;42.902;25.336;2023-03-20T07:00:43;97401.81;;;11.45;65.86
34297;BME280;20564;42.902;25.336;2023-03-20T07:03:12;97393.03;;;11.64;64.88
34297;BME280;20564;42.902;25.336;2023-03-20T07:05:39;97394.78;;;11.83;62.50
34297;BME280;20564;42.902;25.336;2023-03-20T07:08:07;97393.53;;;11.97;61.38
34297;BME280;20564;42.902;25.336;2023-03-20T07:10:37;97396.78;;;12.18;59.01
34297;BME280;20564;42.902;25.336;2023-03-20T07:13:04;97394.84;;;12.48;59.78
34297;BME280;20564;42.902;25.336;2023-03-20T07:15:34;97390.81;;;12.71;57.60
34297;BME280;20564;42.902;25.336;2023-03-20T07:18:02;97389.78;;;13.00;56.52
34297;BME280;20564;42.902;25.336;2023-03-20T07:20:30;97384.59;;;13.26;54.66
34297;BME280;20564;42.902;25.336;2023-03-20T07:22:58;97390.22;;;13.49;53.35
34297;BME280;20564;42.902;25.336;2023-03-20T07:25:26;97386.38;;;13.61;52.65
34297;BME280;20564;42.902;25.336;2023-03-20T07:28:08;97382.53;;;13.82;52.87
34297;BME280;20564;42.902;25.336;2023-03-20T07:30:38;97376.41;;;14.07;53.46
34297;BME280;20564;42.902;25.336;2023-03-20T07:33:08;97386.81;;;14.35;53.20
34297;BME280;20564;42.902;25.336;2023-03-20T07:35:36;97385.94;;;14.60;52.69
34297;BME280;20564;42.902;25.336;2023-03-20T07:38:05;97385.66;;;14.88;50.69
34297;BME280;20564;42.902;25.336;2023-03-20T07:40:34;97382.56;;;15.09;51.04
34297;BME280;20564;42.902;25.336;2023-03-20T07:43:01;97383.41;;;15.34;50.00
34297;BME280;20564;42.902;25.336;2023-03-20T07:45:29;97378.09;;;15.50;49.70
34297;BME280;20564;42.902;25.336;2023-03-20T07:47:57;97390.41;;;15.67;48.64
34297;BME280;20564;42.902;25.336;2023-03-20T07:50:25;97379.94;;;15.74;48.55
34297;BME280;20564;42.902;25.336;2023-03-20T07:52:53;97379.09;;;15.98;46.84
34297;BME280;20564;42.902;25.336;2023-03-20T07:55:24;97385.34;;;16.13;46.55
34297;BME280;20564;42.902;25.336;2023-03-20T07:57:51;97382.31;;;16.25;45.16
34297;BME280;20564;42.902;25.336;2023-03-20T08:00:19;97380.25;;;16.43;44.90
34297;BME280;20564;42.902;25.336;2023-03-20T08:02:47;97368.88;;;16.66;45.26
34297;BME280;20564;42.902;25.336;2023-03-20T08:05:15;97373.41;;;16.88;43.82
34297;BME280;20564;42.902;25.336;2023-03-20T08:07:43;97375.63;;;17.07;44.37
34297;BME280;20564;42.902;25.336;2023-03-20T08:10:12;97373.28;;;17.13;42.26
34297;BME280;20564;42.902;25.336;2023-03-20T08:12:39;97372.44;;;17.12;42.64
34297;BME280;20564;42.902;25.336;2023-03-20T08:15:07;97369.13;;;17.33;42.18
34297;BME280;20564;42.902;25.336;2023-03-20T08:17:35;97370.00;;;17.48;41.34
34297;BME280;20564;42.902;25.336;2023-03-20T08:20:03;97371.31;;;17.52;41.07
34297;BME280;20564;42.902;25.336;2023-03-20T08:22:30;97368.56;;;17.60;40.93
34297;BME280;20564;42.902;25.336;2023-03-20T08:25:04;97377.69;;;17.66;41.24
34297;BME280;20564;42.902;25.336;2023-03-20T08:27:32;97377.75;;;17.73;42.07
34297;BME280;20564;42.902;25.336;2023-03-20T08:30:06;97368.94;;;17.95;40.81
34297;BME280;20564;42.902;25.336;2023-03-20T08:32:34;97377.84;;;18.02;43.07
34297;BME280;20564;42.902;25.336;2023-03-20T08:35:03;97375.00;;;18.04;41.20
34297;BME280;20564;42.902;25.336;2023-03-20T08:37:55;97373.25;;;17.96;41.33
34297;BME280;20564;42.902;25.336;2023-03-20T08:40:22;97372.56;;;17.79;40.47
34297;BME280;20564;42.902;25.336;2023-03-20T08:42:51;97372.22;;;17.82;42.10
34297;BME280;20564;42.902;25.336;2023-03-20T08:45:17;97367.25;;;17.79;42.14
34297;BME280;20564;42.902;25.336;2023-03-20T08:47:48;97376.06;;;17.80;42.97
34297;BME280;20564;42.902;25.336;2023-03-20T08:50:16;97367.19;;;18.02;42.88
34297;BME280;20564;42.902;25.336;2023-03-20T08:52:45;97375.47;;;18.07;41.89
34297;BME280;20564;42.902;25.336;2023-03-20T08:55:13;97371.06;;;18.15;42.25
34297;BME280;20564;42.902;25.336;2023-03-20T08:57:41;97384.03;;;18.33;42.44
34297;BME280;20564;42.902;25.336;2023-03-20T09:00:11;97379.50;;;18.48;41.88
34297;BME280;20564;42.902;25.336;2023-03-20T09:02:42;97368.81;;;18.63;40.37
34297;BME280;20564;42.902;25.336;2023-03-20T09:05:13;97368.09;;;18.69;39.91
34297;BME280;20564;42.902;25.336;2023-03-20T09:07:42;97362.00;;;18.75;40.55
34297;BME280;20564;42.902;25.336;2023-03-20T09:10:11;97364.13;;;18.79;40.10
34297;BME280;20564;42.902;25.336;2023-03-20T09:12:38;97362.91;;;18.82;38.38
34297;BME280;20564;42.902;25.336;2023-03-20T09:15:06;97357.94;;;18.79;38.06
34297;BME280;20564;42.902;25.336;2023-03-20T09:17:37;97362.84;;;18.75;38.14
34297;BME280;20564;42.902;25.336;2023-03-20T09:20:05;97364.88;;;18.73;36.97
34297;BME280;20564;42.902;25.336;2023-03-20T09:22:33;97354.91;;;18.67;36.16
34297;BME280;20564;42.902;25.336;2023-03-20T09:25:12;97358.16;;;18.77;35.70
34297;BME280;20564;42.902;25.336;2023-03-20T09:27:39;97357.03;;;18.72;35.32
34297;BME280;20564;42.902;25.336;2023-03-20T09:30:07;97353.63;;;18.63;36.50
34297;BME280;20564;42.902;25.336;2023-03-20T09:32:35;97360.38;;;18.74;36.68
34297;BME280;20564;42.902;25.336;2023-03-20T09:35:04;97355.03;;;18.74;35.94
34297;BME280;20564;42.902;25.336;2023-03-20T09:37:31;97351.72;;;18.72;35.71
34297;BME280;20564;42.902;25.336;2023-03-20T09:39:59;97343.63;;;18.80;34.60
34297;BME280;20564;42.902;25.336;2023-03-20T09:42:43;97345.25;;;18.81;34.71
34297;BME280;20564;42.902;25.336;2023-03-20T09:49:31;97333.22;;;19.07;31.95
34297;BME280;20564;42.902;25.336;2023-03-20T09:57:22;97322.41;;;19.15;29.53
34297;BME280;20564;42.902;25.336;2023-03-20T09:59:55;97320.03;;;19.20;29.38
34297;BME280;20564;42.902;25.336;2023-03-20T10:02:49;97317.44;;;19.33;27.92
34297;BME280;20564;42.902;25.336;2023-03-20T10:05:30;97312.09;;;19.55;27.10
34297;BME280;20564;42.902;25.336;2023-03-20T10:08:02;97309.56;;;19.68;27.92
34297;BME280;20564;42.902;25.336;2023-03-20T10:10:50;97319.88;;;19.78;29.94
34297;BME280;20564;42.902;25.336;2023-03-20T10:16:22;97311.41;;;20.02;28.54
34297;BME280;20564;42.902;25.336;2023-03-20T10:19:11;97311.53;;;20.22;27.50
34297;BME280;20564;42.902;25.336;2023-03-20T10:21:43;97306.59;;;20.32;27.95
34297;BME280;20564;42.902;25.336;2023-03-20T10:26:54;97305.59;;;20.40;25.71
34297;BME280;20564;42.902;25.336;2023-03-20T10:40:35;97282.16;;;21.23;25.33
34297;BME280;20564;42.902;25.336;2023-03-20T10:43:17;97283.00;;;21.24;25.83
34297;BME280;20564;42.902;25.336;2023-03-20T10:45:53;97280.94;;;21.12;25.65
34297;BME280;20564;42.902;25.336;2023-03-20T10:48:28;97280.91;;;20.92;25.61
34297;BME280;20564;42.902;25.336;2023-03-20T10:50:59;97274.31;;;20.88;24.85
34297;BME280;20564;42.902;25.336;2023-03-20T10:56:09;97268.56;;;20.91;25.66
34297;BME280;20564;42.902;25.336;2023-03-20T10:58:43;97266.53;;;21.07;25.97
34297;BME280;20564;42.902;25.336;2023-03-20T11:01:12;97266.53;;;21.13;25.18
34297;BME280;20564;42.902;25.336;2023-03-20T11:03:50;97266.09;;;21.16;25.20
34297;BME280;20564;42.902;25.336;2023-03-20T11:06:26;97263.66;;;21.15;24.46
34297;BME280;20564;42.902;25.336;2023-03-20T11:08:55;97256.22;;;21.17;24.61
34297;BME280;20564;42.902;25.336;2023-03-20T11:11:26;97249.63;;;21.26;24.22
34297;BME280;20564;42.902;25.336;2023-03-20T11:13:55;97242.47;;;21.33;24.88
34297;BME280;20564;42.902;25.336;2023-03-20T11:16:29;97237.75;;;21.35;24.31
34297;BME280;20564;42.902;25.336;2023-03-20T11:19:07;97236.47;;;21.45;24.25
34297;BME280;20564;42.902;25.336;2023-03-20T11:21:36;97236.28;;;21.39;24.09
34297;BME280;20564;42.902;25.336;2023-03-20T11:24:35;97227.41;;;21.32;24.26
34297;BME280;20564;42.902;25.336;2023-03-20T11:27:16;97211.56;;;21.11;25.39
34297;BME280;20564;42.902;25.336;2023-03-20T11:29:47;97207.25;;;21.10;25.14
34297;BME280;20564;42.902;25.336;2023-03-20T11:34:54;97209.28;;;21.21;24.45
34297;BME280;20564;42.902;25.336;2023-03-20T11:37:33;97210.53;;;21.38;23.79
34297;BME280;20564;42.902;25.336;2023-03-20T11:40:32;97206.19;;;21.37;24.70
34297;BME280;20564;42.902;25.336;2023-03-20T11:45:37;97205.16;;;20.99;24.17
34297;BME280;20564;42.902;25.336;2023-03-20T11:48:18;97195.88;;;20.68;24.70
34297;BME280;20564;42.902;25.336;2023-03-20T11:51:03;97192.75;;;20.51;26.42
34297;BME280;20564;42.902;25.336;2023-03-20T11:53:59;97183.13;;;20.57;25.41
34297;BME280;20564;42.902;25.336;2023-03-20T11:56:30;97181.91;;;20.79;25.49
34297;BME280;20564;42.902;25.336;2023-03-20T12:01:52;97188.50;;;20.97;25.66
34297;BME280;20564;42.902;25.336;2023-03-20T12:04:33;97181.28;;;20.97;25.38
34297;BME280;20564;42.902;25.336;2023-03-20T12:09:36;97169.56;;;20.85;25.15
34297;BME280;20564;42.902;25.336;2023-03-20T12:15:04;97165.25;;;21.04;25.66
34297;BME280;20564;42.902;25.336;2023-03-20T12:23:37;97169.38;;;21.00;25.51
34297;BME280;20564;42.902;25.336;2023-03-20T12:28:49;97163.59;;;20.76;26.18
34297;BME280;20564;42.902;25.336;2023-03-20T12:31:52;97168.13;;;20.62;27.24
34297;BME280;20564;42.902;25.336;2023-03-20T12:34:41;97157.41;;;20.56;26.97
34297;BME280;20564;42.902;25.336;2023-03-20T12:37:10;97161.06;;;20.41;27.20
34297;BME280;20564;42.902;25.336;2023-03-20T12:39:51;97161.25;;;20.46;26.89
34297;BME280;20564;42.902;25.336;2023-03-20T12:42:42;97163.16;;;20.53;27.97
34297;BME280;20564;42.902;25.336;2023-03-20T12:45:22;97161.75;;;20.70;28.11
34297;BME280;20564;42.902;25.336;2023-03-20T12:48:00;97160.69;;;20.64;27.56
34297;BME280;20564;42.902;25.336;2023-03-20T12:56:27;97158.84;;;20.98;30.48
34297;BME280;20564;42.902;25.336;2023-03-20T12:59:14;97150.41;;;20.94;30.43
34297;BME280;20564;42.902;25.336;2023-03-20T13:02:38;97153.91;;;20.95;29.05
34297;BME280;20564;42.902;25.336;2023-03-20T13:07:20;97143.41;;;21.07;30.27
34297;BME280;20564;42.902;25.336;2023-03-20T13:13:02;97144.44;;;20.73;31.86
34297;BME280;20564;42.902;25.336;2023-03-20T13:18:32;97142.19;;;20.63;32.59
34297;BME280;20564;42.902;25.336;2023-03-20T13:21:09;97132.47;;;20.35;32.44
34297;BME280;20564;42.902;25.336;2023-03-20T13:23:50;97137.19;;;20.40;34.09
34297;BME280;20564;42.902;25.336;2023-03-20T13:29:34;97127.31;;;20.27;32.54
34297;BME280;20564;42.902;25.336;2023-03-20T13:37:56;97124.81;;;20.26;33.64
34297;BME280;20564;42.902;25.336;2023-03-20T13:40:34;97119.50;;;20.32;32.91
34297;BME280;20564;42.902;25.336;2023-03-20T13:43:33;97119.28;;;20.27;32.46
34297;BME280;20564;42.902;25.336;2023-03-20T13:46:14;97116.56;;;20.14;32.61
34297;BME280;20564;42.902;25.336;2023-03-20T13:48:44;97120.66;;;20.03;32.68
34297;BME280;20564;42.902;25.336;2023-03-20T13:51:34;97120.66;;;19.96;33.82
34297;BME280;20564;42.902;25.336;2023-03-20T14:05:34;97113.66;;;19.95;34.45
34297;BME280;20564;42.902;25.336;2023-03-20T14:13:36;97115.09;;;19.91;34.47
34297;BME280;20564;42.902;25.336;2023-03-20T14:16:09;97111.81;;;19.89;35.03
34297;BME280;20564;42.902;25.336;2023-03-20T14:18:40;97109.56;;;19.93;33.95
34297;BME280;20564;42.902;25.336;2023-03-20T14:21:13;97104.59;;;19.83;33.46
34297;BME280;20564;42.902;25.336;2023-03-20T14:23:49;97107.47;;;19.88;34.11
34297;BME280;20564;42.902;25.336;2023-03-20T14:26:21;97106.88;;;19.93;34.28
34297;BME280;20564;42.902;25.336;2023-03-20T14:28:59;97109.94;;;19.83;34.12
34297;BME280;20564;42.902;25.336;2023-03-20T14:31:31;97105.84;;;19.87;34.23
34297;BME280;20564;42.902;25.336;2023-03-20T14:37:02;97097.28;;;20.12;33.60
34297;BME280;20564;42.902;25.336;2023-03-20T14:53:52;97077.28;;;19.94;32.75
34297;BME280;20564;42.902;25.336;2023-03-20T14:56:32;97082.44;;;19.89;32.62
34297;BME280;20564;42.902;25.336;2023-03-20T14:59:10;97090.19;;;19.78;33.57
34297;BME280;20564;42.902;25.336;2023-03-20T15:04:39;97080.50;;;19.70;32.57
34297;BME280;20564;42.902;25.336;2023-03-20T15:07:16;97072.69;;;19.68;32.16
34297;BME280;20564;42.902;25.336;2023-03-20T15:09:50;97078.47;;;19.72;32.62
34297;BME280;20564;42.902;25.336;2023-03-20T15:12:24;97081.56;;;19.75;33.13
34297;BME280;20564;42.902;25.336;2023-03-20T15:15:02;97080.75;;;19.88;32.31
34297;BME280;20564;42.902;25.336;2023-03-20T15:17:44;97081.16;;;19.85;32.56
34297;BME280;20564;42.902;25.336;2023-03-20T15:20:16;97071.25;;;19.66;33.06
34297;BME280;20564;42.902;25.336;2023-03-20T15:22:48;97069.91;;;19.42;33.54
34297;BME280;20564;42.902;25.336;2023-03-20T15:25:18;97070.47;;;19.72;32.06
34297;BME280;20564;42.902;25.336;2023-03-20T15:27:46;97071.91;;;19.81;32.53
34297;BME280;20564;42.902;25.336;2023-03-20T15:30:16;97073.13;;;19.72;32.72
34297;BME280;20564;42.902;25.336;2023-03-20T15:32:44;97070.38;;;19.59;33.28
34297;BME280;20564;42.902;25.336;2023-03-20T15:35:15;97072.72;;;19.34;33.34
34297;BME280;20564;42.902;25.336;2023-03-20T15:37:48;97075.09;;;19.09;34.24
34297;BME280;20564;42.902;25.336;2023-03-20T15:40:28;97072.94;;;18.91;34.42
34297;BME280;20564;42.902;25.336;2023-03-20T15:43:17;97078.81;;;18.58;35.42
34297;BME280;20564;42.902;25.336;2023-03-20T15:45:51;97082.31;;;18.37;36.10
34297;BME280;20564;42.902;25.336;2023-03-20T15:48:47;97074.72;;;18.13;36.69
34297;BME280;20564;42.902;25.336;2023-03-20T15:51:17;97082.47;;;18.07;36.31
34297;BME280;20564;42.902;25.336;2023-03-20T15:53:46;97085.63;;;17.96;36.48
34297;BME280;20564;42.902;25.336;2023-03-20T15:56:17;97086.13;;;17.85;36.93
34297;BME280;20564;42.902;25.336;2023-03-20T15:58:48;97087.09;;;17.63;37.86
34297;BME280;20564;42.902;25.336;2023-03-20T16:01:20;97089.78;;;17.48;39.74
34297;BME280;20564;42.902;25.336;2023-03-20T16:03:49;97085.91;;;17.35;38.38
34297;BME280;20564;42.902;25.336;2023-03-20T16:06:21;97093.81;;;17.29;38.26